Time;durP1;ratioP1;P1;durP2;ratioP2;P2;SDS_P1;SDS_P2;PMS_P1;PMS_P2;Temp;Humidity;BMP_temperature;BMP_pressure;BME280_temperature;BME280_humidity;BME280_pressure;Samples;Min_cycle;Max_cycle;Signal;HPM_P1;HPM_P2
2021/08/02 00:00:02;;;;;;;;;;;;;;;16.77;100.00;98606.34;5007575;28;19949;-63
2021/08/02 00:02:37;;;;;;;;;;;;;;;16.77;100.00;98607.16;5007125;28;19929;-63
2021/08/02 00:05:06;;;;;;;;;;;;;;;17.46;100.00;98602.69;5006571;28;19914;-63
2021/08/02 00:07:32;;;;;;;;;;;;;;;17.56;100.00;98606.38;5006206;28;19925;-62
2021/08/02 00:09:59;;;;;;;;;;;;;;;17.33;100.00;98599.22;5005663;28;20433;-60
2021/08/02 00:12:28;;;;;;;;;;;;;;;17.06;100.00;98610.53;4990073;28;20000;-60
2021/08/02 00:14:58;;;;;;;;;;;;;;;17.62;100.00;98601.69;5005485;28;19925;-63
2021/08/02 00:17:23;;;;;;;;;;;;;;;17.06;100.00;98600.13;5007501;28;20278;-60
2021/08/02 00:19:48;;;;;;;;;;;;;;;17.49;100.00;98602.50;5006820;28;19922;-61
2021/08/02 00:22:14;;;;;;;;;;;;;;;17.03;100.00;98605.50;5006235;28;20404;-61
2021/08/02 00:24:39;;;;;;;;;;;;;;;16.87;100.00;98604.84;5006076;28;19972;-60
2021/08/02 00:27:04;;;;;;;;;;;;;;;16.78;100.00;98611.41;5006471;28;19952;-60
2021/08/02 00:29:31;;;;;;;;;;;;;;;17.27;100.00;98607.47;4987953;28;19924;-63
2021/08/02 00:31:56;;;;;;;;;;;;;;;16.85;100.00;98615.31;5006781;28;19921;-61
2021/08/02 00:34:22;;;;;;;;;;;;;;;16.70;100.00;98609.31;5006247;28;19924;-61
2021/08/02 00:36:56;;;;;;;;;;;;;;;16.95;100.00;98606.97;5006570;28;19920;-61
2021/08/02 00:39:21;;;;;;;;;;;;;;;16.46;100.00;98605.66;4987331;28;20017;-61
2021/08/02 00:42:10;;;;;;;;;;;;;;;17.00;100.00;98610.09;5006476;28;20012;-60
2021/08/02 00:44:44;;;;;;;;;;;;;;;16.49;100.00;98606.31;4993358;28;19917;-61
2021/08/02 00:47:11;;;;;;;;;;;;;;;17.33;100.00;98605.28;4987664;28;19921;-61
2021/08/02 00:49:37;;;;;;;;;;;;;;;17.87;100.00;98603.47;5007116;28;20008;-63
2021/08/02 00:52:02;;;;;;;;;;;;;;;17.95;100.00;98599.41;4989596;28;20021;-61
2021/08/02 00:54:27;;;;;;;;;;;;;;;17.67;100.00;98610.00;4989358;28;19922;-61
2021/08/02 00:56:55;;;;;;;;;;;;;;;17.45;100.00;98601.03;5007657;28;19922;-61
2021/08/02 00:59:21;;;;;;;;;;;;;;;17.26;100.00;98613.59;5007840;28;19949;-60
2021/08/02 01:01:46;;;;;;;;;;;;;;;17.72;100.00;98611.38;4990287;28;19964;-61
2021/08/02 01:04:13;;;;;;;;;;;;;;;18.02;100.00;98615.47;5008509;28;19921;-61
2021/08/02 01:06:39;;;;;;;;;;;;;;;18.12;100.00;98615.66;4990642;28;19991;-60
2021/08/02 01:09:05;;;;;;;;;;;;;;;17.77;100.00;98616.28;5008154;28;20338;-62
2021/08/02 01:11:32;;;;;;;;;;;;;;;17.83;100.00;98626.28;5008670;28;19921;-63
2021/08/02 01:13:59;;;;;;;;;;;;;;;16.73;100.00;98629.91;5007913;28;19927;-63
2021/08/02 01:16:25;;;;;;;;;;;;;;;16.52;100.00;98631.28;4991390;28;19922;-62
2021/08/02 01:18:50;;;;;;;;;;;;;;;16.78;100.00;98636.59;5006437;28;19917;-60
2021/08/02 01:21:20;;;;;;;;;;;;;;;16.95;100.00;98633.81;4988892;28;20354;-61
2021/08/02 01:23:49;;;;;;;;;;;;;;;16.85;100.00;98630.09;4990117;28;20283;-61
2021/08/02 01:26:50;;;;;;;;;;;;;;;16.85;100.00;98633.53;5006371;28;19932;-62
2021/08/02 01:29:33;;;;;;;;;;;;;;;17.17;100.00;98635.00;4926670;29;19923;-62
2021/08/02 01:31:58;;;;;;;;;;;;;;;17.07;100.00;98638.22;4999099;28;19972;-62
2021/08/02 01:34:24;;;;;;;;;;;;;;;17.02;100.00;98632.47;5006544;28;19917;-63
2021/08/02 01:36:49;;;;;;;;;;;;;;;16.14;100.00;98631.84;4989544;28;19931;-63
2021/08/02 01:39:14;;;;;;;;;;;;;;;16.40;100.00;98634.63;5007091;28;19921;-62
2021/08/02 01:41:40;;;;;;;;;;;;;;;16.90;100.00;98634.09;5006907;28;19940;-63
2021/08/02 01:44:05;;;;;;;;;;;;;;;17.07;100.00;98621.78;5006966;28;19922;-62
2021/08/02 01:46:34;;;;;;;;;;;;;;;17.17;100.00;98632.41;5006409;28;19918;-63
2021/08/02 01:49:05;;;;;;;;;;;;;;;17.12;100.00;98630.94;4990213;28;19922;-62
2021/08/02 01:51:40;;;;;;;;;;;;;;;16.44;100.00;98639.53;5007191;28;20007;-63
2021/08/02 01:54:13;;;;;;;;;;;;;;;16.73;100.00;98634.28;5006507;28;19920;-63
2021/08/02 01:56:50;;;;;;;;;;;;;;;16.78;100.00;98631.41;4989655;28;19933;-63
2021/08/02 01:59:17;;;;;;;;;;;;;;;16.40;100.00;98637.22;5006315;28;19921;-63
2021/08/02 02:01:49;;;;;;;;;;;;;;;17.04;100.00;98633.22;4988531;28;19917;-62
2021/08/02 02:04:14;;;;;;;;;;;;;;;17.41;100.00;98633.41;5005504;28;20417;-63
2021/08/02 02:06:40;;;;;;;;;;;;;;;17.28;100.00;98637.75;4988970;28;19917;-63
2021/08/02 02:09:07;;;;;;;;;;;;;;;17.42;100.00;98642.88;4989542;28;19952;-62
2021/08/02 02:11:32;;;;;;;;;;;;;;;17.93;100.00;98634.34;4989209;28;20247;-62
2021/08/02 02:14:02;;;;;;;;;;;;;;;17.51;100.00;98641.44;4989184;28;20023;-63
2021/08/02 02:16:27;;;;;;;;;;;;;;;17.60;100.00;98640.00;4989981;28;20398;-63
2021/08/02 02:18:55;;;;;;;;;;;;;;;17.62;100.00;98645.94;4989786;28;20214;-62
2021/08/02 02:21:23;;;;;;;;;;;;;;;18.46;100.00;98644.59;4973509;28;19917;-62
2021/08/02 02:23:48;;;;;;;;;;;;;;;18.02;100.00;98641.53;5007156;28;20003;-63
2021/08/02 02:26:13;;;;;;;;;;;;;;;18.01;100.00;98639.00;5007275;28;20020;-62
2021/08/02 02:28:39;;;;;;;;;;;;;;;18.16;100.00;98637.97;4989666;28;19917;-62
2021/08/02 02:31:04;;;;;;;;;;;;;;;18.32;100.00;98641.16;5007037;28;19929;-63
2021/08/02 02:33:30;;;;;;;;;;;;;;;18.27;100.00;98634.59;4989795;28;19925;-62
2021/08/02 02:35:55;;;;;;;;;;;;;;;18.28;100.00;98642.31;5007287;28;19936;-63
2021/08/02 02:38:20;;;;;;;;;;;;;;;18.09;100.00;98641.94;5010343;28;19920;-63
2021/08/02 02:40:46;;;;;;;;;;;;;;;18.06;100.00;98649.94;4993853;28;19922;-63
2021/08/02 02:43:11;;;;;;;;;;;;;;;17.94;100.00;98643.81;4993237;28;20004;-62
2021/08/02 02:45:37;;;;;;;;;;;;;;;18.16;100.00;98653.59;4994915;28;20013;-63
2021/08/02 02:48:03;;;;;;;;;;;;;;;17.67;100.00;98656.88;4994836;28;19921;-63
2021/08/02 02:50:29;;;;;;;;;;;;;;;18.31;100.00;98654.31;4993286;28;19924;-62
2021/08/02 02:52:54;;;;;;;;;;;;;;;18.61;100.00;98653.94;5011831;28;19921;-63
2021/08/02 02:55:19;;;;;;;;;;;;;;;18.48;100.00;98651.38;4993649;28;19949;-63
2021/08/02 02:57:44;;;;;;;;;;;;;;;18.42;100.00;98653.56;4994212;28;20012;-63
2021/08/02 03:00:10;;;;;;;;;;;;;;;17.97;100.00;98660.06;5010824;28;19920;-63
2021/08/02 03:02:36;;;;;;;;;;;;;;;17.34;100.00;98663.38;5010974;28;19914;-63
2021/08/02 03:05:01;;;;;;;;;;;;;;;17.32;100.00;98662.66;5010872;28;20074;-63
2021/08/02 03:07:29;;;;;;;;;;;;;;;17.60;100.00;98660.84;4994022;28;19924;-63
2021/08/02 03:09:55;;;;;;;;;;;;;;;17.80;100.00;98662.94;4993658;28;19967;-63
2021/08/02 03:12:20;;;;;;;;;;;;;;;18.20;100.00;98657.66;4992668;28;19952;-63
2021/08/02 03:14:45;;;;;;;;;;;;;;;18.14;100.00;98658.09;5011544;28;19917;-63
2021/08/02 03:17:11;;;;;;;;;;;;;;;18.14;100.00;98660.69;5011024;28;20405;-63
2021/08/02 03:19:36;;;;;;;;;;;;;;;17.96;100.00;98655.78;5010782;28;19917;-63
2021/08/02 03:22:04;;;;;;;;;;;;;;;18.25;100.00;98650.38;5010869;28;20399;-62
2021/08/02 03:24:31;;;;;;;;;;;;;;;18.38;100.00;98653.78;4992507;28;19972;-63
2021/08/02 03:27:16;;;;;;;;;;;;;;;18.42;100.00;98649.19;4993408;28;19949;-62
2021/08/02 03:29:42;;;;;;;;;;;;;;;18.49;100.00;98657.41;5010066;28;19921;-63
2021/08/02 03:32:12;;;;;;;;;;;;;;;18.58;98.38;98664.59;4993022;28;19917;-63
2021/08/02 03:34:37;;;;;;;;;;;;;;;18.53;92.07;98669.28;4992548;28;20394;-63
2021/08/02 03:37:04;;;;;;;;;;;;;;;18.69;97.76;98667.28;4992776;28;19917;-63
2021/08/02 03:39:29;;;;;;;;;;;;;;;18.56;95.74;98671.69;4993098;28;19913;-62
2021/08/02 03:41:54;;;;;;;;;;;;;;;18.53;91.05;98671.91;4992520;28;19929;-63
2021/08/02 03:44:20;;;;;;;;;;;;;;;18.53;96.43;98674.50;4993241;28;19936;-63
2021/08/02 03:46:45;;;;;;;;;;;;;;;18.49;96.15;98676.47;5010498;28;19925;-63
2021/08/02 03:49:11;;;;;;;;;;;;;;;18.48;97.18;98668.78;5009925;28;19913;-63
2021/08/02 03:51:42;;;;;;;;;;;;;;;18.27;96.99;98671.09;4993444;28;20349;-63
2021/08/02 03:54:07;;;;;;;;;;;;;;;18.36;96.19;98673.09;4992281;28;19948;-62
2021/08/02 03:56:32;;;;;;;;;;;;;;;18.23;95.73;98669.66;5009919;28;19917;-62
2021/08/02 03:59:00;;;;;;;;;;;;;;;18.44;97.91;98677.75;5010302;28;19984;-63
2021/08/02 04:01:26;;;;;;;;;;;;;;;18.52;92.61;98681.50;5011525;28;19914;-62
2021/08/02 04:03:51;;;;;;;;;;;;;;;18.47;89.78;98680.16;4992634;28;20367;-63
2021/08/02 04:06:16;;;;;;;;;;;;;;;18.51;93.20;98684.22;5010549;28;20314;-62
2021/08/02 04:08:42;;;;;;;;;;;;;;;18.42;89.38;98679.63;5009488;28;20556;-63
2021/08/02 04:11:07;;;;;;;;;;;;;;;18.53;91.41;98693.59;5011015;28;19914;-62
2021/08/02 04:13:33;;;;;;;;;;;;;;;18.48;77.71;98694.88;5009773;28;20438;-63
2021/08/02 04:15:58;;;;;;;;;;;;;;;18.61;90.68;98695.69;5010928;28;19917;-63
2021/08/02 04:18:24;;;;;;;;;;;;;;;18.63;87.99;98688.56;5010451;28;20299;-62
2021/08/02 04:20:54;;;;;;;;;;;;;;;18.71;90.16;98691.47;5010306;28;19917;-62
2021/08/02 04:23:19;;;;;;;;;;;;;;;18.62;92.96;98686.91;5004734;28;20020;-62
2021/08/02 04:25:45;;;;;;;;;;;;;;;18.71;95.08;98685.44;5008244;28;20510;-62
2021/08/02 04:28:10;;;;;;;;;;;;;;;17.82;100.00;98700.16;5009159;28;19917;-63
2021/08/02 04:30:41;;;;;;;;;;;;;;;17.62;100.00;98709.25;5008831;28;19976;-63
2021/08/02 04:33:07;;;;;;;;;;;;;;;17.53;100.00;98707.25;5009715;28;19945;-62
2021/08/02 04:35:32;;;;;;;;;;;;;;;17.30;100.00;98711.34;5008394;28;20646;-63
2021/08/02 04:38:00;;;;;;;;;;;;;;;17.93;100.00;98710.72;4991214;28;19913;-62
2021/08/02 04:40:25;;;;;;;;;;;;;;;18.06;100.00;98705.50;5007902;28;19914;-63
2021/08/02 04:42:51;;;;;;;;;;;;;;;17.68;100.00;98708.03;5006104;28;19924;-62
2021/08/02 04:45:19;;;;;;;;;;;;;;;17.06;100.00;98703.34;5007336;28;20219;-62
2021/08/02 04:47:44;;;;;;;;;;;;;;;17.64;100.00;98710.00;5007335;28;20017;-62
2021/08/02 04:50:13;;;;;;;;;;;;;;;17.22;100.00;98714.47;5008461;28;20004;-63
2021/08/02 04:52:39;;;;;;;;;;;;;;;17.71;100.00;98713.03;4996562;28;20095;-63
2021/08/02 04:55:04;;;;;;;;;;;;;;;18.00;100.00;98702.50;5008985;28;20008;-63
2021/08/02 04:57:30;;;;;;;;;;;;;;;17.61;100.00;98709.34;5007625;28;20020;-62
2021/08/02 04:59:55;;;;;;;;;;;;;;;18.20;100.00;98709.81;5007670;28;19967;-63
2021/08/02 05:02:21;;;;;;;;;;;;;;;18.26;100.00;98708.53;5007075;28;20287;-62
2021/08/02 05:04:47;;;;;;;;;;;;;;;17.79;100.00;98715.97;5007608;28;19918;-62
2021/08/02 05:07:16;;;;;;;;;;;;;;;18.21;100.00;98711.47;5006927;28;19921;-63
2021/08/02 05:09:41;;;;;;;;;;;;;;;17.63;100.00;98715.31;4989424;28;19917;-61
2021/08/02 05:12:07;;;;;;;;;;;;;;;18.28;99.24;98714.47;5007088;28;19940;-63
2021/08/02 05:14:32;;;;;;;;;;;;;;;18.36;100.00;98710.41;5007688;28;19971;-62
2021/08/02 05:16:58;;;;;;;;;;;;;;;18.62;100.00;98707.78;5008089;28;19924;-62
2021/08/02 05:19:23;;;;;;;;;;;;;;;18.31;100.00;98712.47;5008792;28;20011;-62
2021/08/02 05:21:48;;;;;;;;;;;;;;;18.39;100.00;98710.19;5007684;28;19928;-63
2021/08/02 05:24:13;;;;;;;;;;;;;;;18.71;100.00;98714.94;5006338;28;19928;-62
2021/08/02 05:26:39;;;;;;;;;;;;;;;18.88;88.40;98711.16;5008158;28;20023;-63
2021/08/02 05:29:07;;;;;;;;;;;;;;;18.84;100.00;98711.50;5007071;28;20368;-63
2021/08/02 05:31:32;;;;;;;;;;;;;;;18.47;100.00;98709.66;4990555;28;19917;-63
2021/08/02 05:33:57;;;;;;;;;;;;;;;19.11;97.90;98709.56;5007348;28;19920;-62
2021/08/02 05:36:23;;;;;;;;;;;;;;;18.23;100.00;98711.34;5007593;28;19917;-63
2021/08/02 05:38:48;;;;;;;;;;;;;;;17.50;100.00;98736.94;5008014;28;19925;-63
2021/08/02 05:41:15;;;;;;;;;;;;;;;16.91;100.00;98725.97;5007863;28;20042;-62
2021/08/02 05:43:41;;;;;;;;;;;;;;;17.32;100.00;98732.91;5007656;28;19923;-63
2021/08/02 05:46:06;;;;;;;;;;;;;;;18.43;100.00;98723.00;5007151;28;19922;-62
2021/08/02 05:48:31;;;;;;;;;;;;;;;18.81;100.00;98718.59;5006962;28;19924;-62
2021/08/02 05:50:57;;;;;;;;;;;;;;;19.13;90.86;98718.09;4989146;28;19921;-62
2021/08/02 05:53:22;;;;;;;;;;;;;;;18.34;100.00;98725.31;5006206;28;19924;-63
2021/08/02 05:55:47;;;;;;;;;;;;;;;17.58;100.00;98730.41;5005750;28;20386;-62
2021/08/02 05:58:13;;;;;;;;;;;;;;;17.32;100.00;98733.75;5004336;28;20601;-63
2021/08/02 06:00:38;;;;;;;;;;;;;;;17.65;100.00;98732.53;5006875;28;20005;-63
2021/08/02 06:03:04;;;;;;;;;;;;;;;17.19;100.00;98734.63;5007057;28;19959;-62
2021/08/02 06:05:29;;;;;;;;;;;;;;;16.92;100.00;98732.81;5006641;28;19918;-62
2021/08/02 06:07:54;;;;;;;;;;;;;;;17.50;100.00;98734.34;5006554;28;20351;-62
2021/08/02 06:10:20;;;;;;;;;;;;;;;17.24;100.00;98732.56;5006499;28;20858;-63
2021/08/02 06:12:45;;;;;;;;;;;;;;;17.44;100.00;98745.13;4988773;28;19921;-63
2021/08/02 06:15:11;;;;;;;;;;;;;;;17.84;100.00;98745.19;4987888;28;19917;-62
2021/08/02 06:17:36;;;;;;;;;;;;;;;17.27;100.00;98743.63;5006139;28;20562;-62
2021/08/02 06:20:02;;;;;;;;;;;;;;;16.73;100.00;98744.34;5005015;28;19924;-62
2021/08/02 06:22:27;;;;;;;;;;;;;;;16.59;100.00;98752.16;5005340;28;19923;-62
2021/08/02 06:24:52;;;;;;;;;;;;;;;16.87;100.00;98750.47;5005010;28;19917;-62
2021/08/02 06:27:17;;;;;;;;;;;;;;;17.15;100.00;98749.59;5002188;28;20295;-63
2021/08/02 06:29:43;;;;;;;;;;;;;;;17.00;100.00;98756.59;5000682;28;20156;-63
2021/08/02 06:32:08;;;;;;;;;;;;;;;17.06;100.00;98763.19;4998880;28;19920;-62
2021/08/02 06:34:33;;;;;;;;;;;;;;;16.61;100.00;98763.28;5001796;28;19940;-62
2021/08/02 06:36:59;;;;;;;;;;;;;;;16.48;100.00;98767.56;4983671;28;19917;-63
2021/08/02 06:39:24;;;;;;;;;;;;;;;16.33;100.00;98768.47;5002023;28;19921;-63
2021/08/02 06:41:49;;;;;;;;;;;;;;;16.56;100.00;98759.28;4983530;28;19944;-63
2021/08/02 06:44:15;;;;;;;;;;;;;;;16.36;100.00;98763.09;5001408;28;19963;-62
2021/08/02 06:46:40;;;;;;;;;;;;;;;16.36;100.00;98765.69;5000804;28;19991;-62
2021/08/02 06:49:05;;;;;;;;;;;;;;;16.54;100.00;98772.41;5001283;28;19996;-62
2021/08/02 06:51:30;;;;;;;;;;;;;;;16.30;100.00;98772.09;5000872;28;19925;-63
2021/08/02 06:53:56;;;;;;;;;;;;;;;16.72;100.00;98779.09;5001730;28;19928;-62
2021/08/02 06:56:21;;;;;;;;;;;;;;;16.23;100.00;98781.16;4983305;28;19918;-63
2021/08/02 06:58:47;;;;;;;;;;;;;;;16.40;100.00;98787.97;5002052;28;19913;-63
2021/08/02 07:01:12;;;;;;;;;;;;;;;16.07;100.00;98782.06;4983317;28;19959;-63
2021/08/02 07:03:37;;;;;;;;;;;;;;;16.80;100.00;98793.41;5001765;28;19917;-63
2021/08/02 07:06:03;;;;;;;;;;;;;;;16.92;100.00;98790.03;5000298;28;19953;-63
2021/08/02 07:08:28;;;;;;;;;;;;;;;17.80;100.00;98785.38;5001596;28;20371;-62
2021/08/02 07:10:53;;;;;;;;;;;;;;;17.21;100.00;98792.63;4981471;28;19932;-62
2021/08/02 07:13:18;;;;;;;;;;;;;;;17.39;100.00;98799.28;5000312;28;20367;-62
2021/08/02 07:15:44;;;;;;;;;;;;;;;16.67;100.00;98806.28;4980620;28;19917;-62
2021/08/02 07:18:09;;;;;;;;;;;;;;;16.22;100.00;98806.31;4997772;28;19917;-62
2021/08/02 07:20:35;;;;;;;;;;;;;;;16.52;100.00;98805.44;4996298;28;20012;-63
2021/08/02 07:23:00;;;;;;;;;;;;;;;16.02;100.00;98809.22;4999002;28;20358;-62
2021/08/02 07:25:25;;;;;;;;;;;;;;;16.57;100.00;98805.16;5003646;28;19913;-63
2021/08/02 07:27:51;;;;;;;;;;;;;;;16.46;100.00;98811.00;5004413;28;20358;-63
2021/08/02 07:30:16;;;;;;;;;;;;;;;16.48;100.00;98811.75;5002197;28;20025;-63
2021/08/02 07:32:41;;;;;;;;;;;;;;;15.79;100.00;98813.16;5003272;28;19940;-62
2021/08/02 07:35:07;;;;;;;;;;;;;;;15.66;100.00;98812.94;5000163;28;19917;-62
2021/08/02 07:37:32;;;;;;;;;;;;;;;16.35;100.00;98810.78;5001578;28;19957;-62
2021/08/02 07:39:57;;;;;;;;;;;;;;;17.28;100.00;98802.53;4985341;28;20033;-62
2021/08/02 07:42:23;;;;;;;;;;;;;;;16.91;100.00;98799.63;5003204;28;19917;-62
2021/08/02 07:44:48;;;;;;;;;;;;;;;16.74;100.00;98807.59;4996708;28;20507;-62
2021/08/02 07:47:13;;;;;;;;;;;;;;;17.03;100.00;98808.44;5000653;28;19945;-63
2021/08/02 07:49:39;;;;;;;;;;;;;;;16.69;100.00;98805.28;5002836;28;19924;-62
2021/08/02 07:52:04;;;;;;;;;;;;;;;17.04;100.00;98799.72;4999103;28;19921;-63
2021/08/02 07:54:30;;;;;;;;;;;;;;;16.89;100.00;98809.28;5003056;28;19925;-63
2021/08/02 07:56:55;;;;;;;;;;;;;;;16.38;100.00;98813.22;5003408;28;19964;-63
2021/08/02 07:59:20;;;;;;;;;;;;;;;16.36;100.00;98812.47;5002392;28;20260;-63
2021/08/02 08:01:46;;;;;;;;;;;;;;;16.67;100.00;98807.13;5004096;28;19923;-62
2021/08/02 08:04:11;;;;;;;;;;;;;;;16.44;100.00;98808.47;5004301;28;19960;-62
2021/08/02 08:06:36;;;;;;;;;;;;;;;16.80;100.00;98816.81;5004683;28;20250;-63
2021/08/02 08:09:01;;;;;;;;;;;;;;;16.87;100.00;98812.91;5005261;28;19944;-62
2021/08/02 08:11:27;;;;;;;;;;;;;;;16.81;100.00;98813.28;5005021;28;19924;-62
2021/08/02 08:13:52;;;;;;;;;;;;;;;16.33;100.00;98812.63;5003664;28;20290;-63
2021/08/02 08:16:17;;;;;;;;;;;;;;;16.45;100.00;98806.75;5004469;28;20287;-63
2021/08/02 08:18:43;;;;;;;;;;;;;;;16.69;100.00;98801.81;5004674;28;20473;-63
2021/08/02 08:21:08;;;;;;;;;;;;;;;16.68;100.00;98803.59;4984518;28;20345;-63
2021/08/02 08:23:33;;;;;;;;;;;;;;;17.36;100.00;98799.47;5001291;28;19921;-63
2021/08/02 08:25:59;;;;;;;;;;;;;;;17.19;100.00;98803.13;4984124;28;20109;-63
2021/08/02 08:28:25;;;;;;;;;;;;;;;17.25;100.00;98799.31;5000989;28;19968;-63
2021/08/02 08:30:50;;;;;;;;;;;;;;;18.51;100.00;98798.94;4981746;28;19921;-62
2021/08/02 08:33:16;;;;;;;;;;;;;;;18.43;100.00;98801.22;4980924;28;20593;-62
2021/08/02 08:35:41;;;;;;;;;;;;;;;17.65;100.00;98807.19;4997925;28;19917;-63
2021/08/02 08:38:07;;;;;;;;;;;;;;;18.72;100.00;98801.84;4999633;28;19981;-63
2021/08/02 08:40:32;;;;;;;;;;;;;;;17.64;100.00;98802.94;5001128;28;19948;-63
2021/08/02 08:42:57;;;;;;;;;;;;;;;17.46;100.00;98800.56;5000624;28;19917;-63
2021/08/02 08:45:23;;;;;;;;;;;;;;;17.50;100.00;98802.03;5001078;28;19967;-63
2021/08/02 08:47:49;;;;;;;;;;;;;;;17.40;100.00;98811.34;5000536;28;20282;-63
2021/08/02 08:50:15;;;;;;;;;;;;;;;18.53;100.00;98807.50;5000321;28;20268;-62
2021/08/02 08:52:40;;;;;;;;;;;;;;;18.64;100.00;98809.41;4983670;28;19917;-63
2021/08/02 08:55:10;;;;;;;;;;;;;;;17.93;100.00;98814.94;5000376;28;20344;-63
2021/08/02 08:57:35;;;;;;;;;;;;;;;18.56;100.00;98815.13;4999550;28;19925;-63
2021/08/02 09:00:01;;;;;;;;;;;;;;;19.04;94.48;98802.25;4999859;28;19918;-63
2021/08/02 09:02:27;;;;;;;;;;;;;;;19.74;89.74;98806.06;4981677;28;19920;-63
2021/08/02 09:04:56;;;;;;;;;;;;;;;18.35;99.12;98810.41;4999795;28;19929;-63
2021/08/02 09:07:31;;;;;;;;;;;;;;;18.62;100.00;98806.88;4996432;28;20330;-62
2021/08/02 09:10:00;;;;;;;;;;;;;;;18.05;100.00;98808.06;4999129;28;19975;-62
2021/08/02 09:12:25;;;;;;;;;;;;;;;17.70;100.00;98818.16;4998890;28;19924;-63
2021/08/02 09:15:06;;;;;;;;;;;;;;;17.51;100.00;98818.47;4982668;28;20966;-63
2021/08/02 09:17:36;;;;;;;;;;;;;;;19.10;93.36;98812.28;4981198;28;20337;-63
2021/08/02 09:20:03;;;;;;;;;;;;;;;18.92;91.87;98818.78;4980993;28;20295;-62
2021/08/02 09:22:33;;;;;;;;;;;;;;;19.25;94.02;98812.13;4996667;28;20030;-60
2021/08/02 09:25:05;;;;;;;;;;;;;;;19.67;91.72;98812.63;4981165;28;19921;-60
2021/08/02 09:27:33;;;;;;;;;;;;;;;20.09;87.53;98813.06;4998533;28;19921;-63
2021/08/02 09:29:58;;;;;;;;;;;;;;;19.92;90.85;98809.91;4999732;28;19917;-61
2021/08/02 09:32:23;;;;;;;;;;;;;;;20.25;84.84;98817.06;4989097;28;20413;-61
2021/08/02 09:34:48;;;;;;;;;;;;;;;19.91;87.77;98815.25;4997751;28;19925;-62
2021/08/02 09:37:20;;;;;;;;;;;;;;;18.57;100.00;98830.66;4998120;28;19998;-61
2021/08/02 09:39:46;;;;;;;;;;;;;;;19.10;100.00;98821.91;4981472;28;19921;-61
2021/08/02 09:42:11;;;;;;;;;;;;;;;18.51;100.00;98825.03;4998597;28;19924;-62
2021/08/02 09:44:37;;;;;;;;;;;;;;;19.16;94.50;98811.88;4998575;28;19948;-62
2021/08/02 09:47:03;;;;;;;;;;;;;;;18.44;98.05;98819.38;4980187;28;19929;-61
2021/08/02 09:49:42;;;;;;;;;;;;;;;19.43;89.27;98814.28;4998695;28;20436;-61
2021/08/02 09:52:08;;;;;;;;;;;;;;;20.31;79.74;98812.31;4978219;28;19921;-61
2021/08/02 09:54:33;;;;;;;;;;;;;;;20.21;78.95;98820.84;4998430;28;19913;-62
2021/08/02 09:56:58;;;;;;;;;;;;;;;19.13;85.59;98814.66;4998399;28;19992;-62
2021/08/02 09:59:24;;;;;;;;;;;;;;;20.25;80.64;98814.44;4998807;28;19921;-61
2021/08/02 10:01:49;;;;;;;;;;;;;;;20.08;77.01;98814.84;4982015;28;19913;-62
2021/08/02 10:04:15;;;;;;;;;;;;;;;20.19;80.88;98817.50;4998324;28;19957;-61
2021/08/02 10:06:41;;;;;;;;;;;;;;;21.04;76.73;98805.84;4995579;28;19925;-62
2021/08/02 10:09:07;;;;;;;;;;;;;;;21.25;75.00;98808.56;4998539;28;19918;-61
2021/08/02 10:11:33;;;;;;;;;;;;;;;21.38;73.35;98811.06;4999393;28;19917;-62
2021/08/02 10:13:58;;;;;;;;;;;;;;;21.81;72.50;98807.63;4998400;28;19922;-61
2021/08/02 10:16:27;;;;;;;;;;;;;;;21.07;73.47;98808.22;4981593;28;20004;-61
2021/08/02 10:18:53;;;;;;;;;;;;;;;21.58;74.50;98817.34;4997890;28;19922;-61
2021/08/02 10:21:19;;;;;;;;;;;;;;;21.57;72.43;98816.50;4981573;28;20576;-62
2021/08/02 10:23:44;;;;;;;;;;;;;;;20.93;75.28;98821.56;4981089;28;19921;-62
2021/08/02 10:26:20;;;;;;;;;;;;;;;21.36;75.08;98818.19;4999288;28;20938;-61
2021/08/02 10:28:52;;;;;;;;;;;;;;;19.51;79.52;98821.56;4999187;28;19917;-62
2021/08/02 10:31:19;;;;;;;;;;;;;;;19.54;89.05;98818.72;4968819;28;19929;-62
2021/08/02 10:33:45;;;;;;;;;;;;;;;20.08;81.65;98814.03;4981696;28;19928;-61
2021/08/02 10:36:11;;;;;;;;;;;;;;;20.96;74.29;98816.94;4998613;28;19917;-61
2021/08/02 10:38:43;;;;;;;;;;;;;;;21.39;76.92;98817.94;4981806;28;20028;-61
2021/08/02 10:41:09;;;;;;;;;;;;;;;20.23;80.88;98818.94;4998445;28;20008;-61
2021/08/02 10:43:40;;;;;;;;;;;;;;;21.54;74.73;98819.38;4996573;28;20040;-61
2021/08/02 10:46:18;;;;;;;;;;;;;;;20.04;72.27;98824.69;4982062;28;20000;-61
2021/08/02 10:48:44;;;;;;;;;;;;;;;21.47;70.36;98826.91;4968715;28;19917;-60
2021/08/02 10:51:17;;;;;;;;;;;;;;;21.98;65.81;98822.78;4998105;28;20354;-61
2021/08/02 10:53:43;;;;;;;;;;;;;;;22.69;64.11;98820.41;4997877;28;20375;-62
2021/08/02 10:56:08;;;;;;;;;;;;;;;21.26;70.73;98818.09;4981175;28;19917;-61
2021/08/02 10:58:44;;;;;;;;;;;;;;;19.68;78.58;98814.28;4978317;28;19929;-61
2021/08/02 11:01:11;;;;;;;;;;;;;;;21.91;77.06;98811.16;5003125;28;19925;-62
2021/08/02 11:03:37;;;;;;;;;;;;;;;22.52;68.67;98816.56;5003078;28;19972;-62
2021/08/02 11:06:06;;;;;;;;;;;;;;;19.95;74.08;98817.53;5002381;28;19940;-61
2021/08/02 11:08:35;;;;;;;;;;;;;;;19.94;84.67;98818.50;5002857;28;19972;-61
2021/08/02 11:11:03;;;;;;;;;;;;;;;21.10;81.50;98818.47;4984174;28;20532;-61
2021/08/02 11:13:29;;;;;;;;;;;;;;;21.24;67.07;98815.59;4982726;28;19925;-61
2021/08/02 11:15:54;;;;;;;;;;;;;;;22.53;72.24;98815.63;5000863;28;20353;-61
2021/08/02 11:18:26;;;;;;;;;;;;;;;21.29;71.89;98812.59;5000557;28;20512;-61
2021/08/02 11:20:52;;;;;;;;;;;;;;;21.04;73.90;98819.78;5003936;28;19925;-61
2021/08/02 11:23:17;;;;;;;;;;;;;;;20.71;75.71;98817.13;4981168;28;19925;-61
2021/08/02 11:25:42;;;;;;;;;;;;;;;22.37;74.69;98825.72;4988700;28;19933;-61
2021/08/02 11:28:09;;;;;;;;;;;;;;;21.78;68.55;98823.59;5003889;28;20501;-62
2021/08/02 11:30:35;;;;;;;;;;;;;;;22.48;63.56;98823.03;5005184;28;20369;-61
2021/08/02 11:33:01;;;;;;;;;;;;;;;22.71;65.95;98825.50;4987990;28;20028;-61
2021/08/02 11:35:36;;;;;;;;;;;;;;;22.52;63.25;98832.31;4988453;28;20402;-62
2021/08/02 11:38:02;;;;;;;;;;;;;;;22.75;65.45;98827.75;4988289;28;19921;-61
2021/08/02 11:40:35;;;;;;;;;;;;;;;22.83;68.22;98827.09;4986159;28;19922;-62
2021/08/02 11:43:00;;;;;;;;;;;;;;;23.97;60.66;98811.88;4981351;28;19921;-62
2021/08/02 11:45:27;;;;;;;;;;;;;;;22.84;65.88;98823.50;4988750;28;19926;-62
2021/08/02 11:47:53;;;;;;;;;;;;;;;23.79;65.58;98819.66;4986898;28;19932;-62
2021/08/02 11:50:18;;;;;;;;;;;;;;;21.85;70.11;98830.84;4998880;28;19925;-62
2021/08/02 11:52:45;;;;;;;;;;;;;;;23.20;68.74;98829.22;5000725;28;19933;-62
2021/08/02 11:55:12;;;;;;;;;;;;;;;23.19;61.96;98822.28;5000542;28;19921;-61
2021/08/02 11:57:37;;;;;;;;;;;;;;;23.54;62.19;98823.63;5000861;28;19925;-61
2021/08/02 12:00:10;;;;;;;;;;;;;;;23.72;67.15;98823.75;4996294;28;19944;-61
2021/08/02 12:02:42;;;;;;;;;;;;;;;23.15;59.28;98821.72;4997758;28;19926;-61
2021/08/02 12:05:17;;;;;;;;;;;;;;;22.06;67.10;98822.19;5001618;28;19923;-61
2021/08/02 12:07:43;;;;;;;;;;;;;;;23.74;61.97;98811.31;4999480;28;19921;-62
2021/08/02 12:10:12;;;;;;;;;;;;;;;22.40;68.32;98814.13;4969039;28;19918;-61
2021/08/02 12:12:38;;;;;;;;;;;;;;;24.59;61.72;98815.88;4998309;28;19929;-61
2021/08/02 12:15:06;;;;;;;;;;;;;;;24.62;56.35;98807.66;4998944;28;20307;-62
2021/08/02 12:17:32;;;;;;;;;;;;;;;24.39;61.50;98811.59;4997390;28;20020;-61
2021/08/02 12:19:59;;;;;;;;;;;;;;;25.18;59.73;98815.59;4995419;28;20080;-62
2021/08/02 12:22:34;;;;;;;;;;;;;;;25.01;55.35;98807.50;4998837;28;19925;-62
2021/08/02 12:25:00;;;;;;;;;;;;;;;25.14;54.48;98798.47;4982267;28;19948;-61
2021/08/02 12:27:26;;;;;;;;;;;;;;;25.32;53.68;98801.16;4999695;28;19921;-62
2021/08/02 12:30:11;;;;;;;;;;;;;;;25.82;52.27;98805.94;4999293;28;19917;-62
2021/08/02 12:32:38;;;;;;;;;;;;;;;25.48;50.17;98813.66;4999908;28;20007;-62
2021/08/02 12:35:04;;;;;;;;;;;;;;;24.45;51.84;98813.66;4982087;28;19963;-62
2021/08/02 12:37:30;;;;;;;;;;;;;;;23.78;55.38;98805.66;4998760;28;19925;-61